createdAt,value
2022-07-29T00:02:14.006Z,9.00
2022-07-29T00:04:42.646Z,9.00
2022-07-29T00:07:11.578Z,8.00
2022-07-29T00:09:50.913Z,9.67
2022-07-29T00:12:26.125Z,10.67
2022-07-29T00:14:57.550Z,9.67
2022-07-29T00:17:26.592Z,9.33
2022-07-29T00:19:55.172Z,9.00
2022-07-29T00:22:23.827Z,9.67
2022-07-29T00:24:52.649Z,9.00
2022-07-29T00:27:21.204Z,9.00
2022-07-29T00:29:49.831Z,11.00
2022-07-29T00:32:18.326Z,10.00
2022-07-29T00:35:07.015Z,9.00
2022-07-29T00:37:35.587Z,11.00
2022-07-29T00:40:05.410Z,11.00
2022-07-29T00:42:53.435Z,10.33
2022-07-29T00:45:23.341Z,9.00
2022-07-29T00:47:52.018Z,10.00
2022-07-29T00:50:20.878Z,10.67
2022-07-29T00:52:49.771Z,10.00
2022-07-29T00:55:19.101Z,9.00
2022-07-29T00:57:48.469Z,11.00
2022-07-29T01:00:27.252Z,10.00
2022-07-29T01:02:55.933Z,9.33
2022-07-29T01:05:49.883Z,9.00
2022-07-29T01:08:19.221Z,11.33
2022-07-29T01:10:48.783Z,11.00
2022-07-29T01:13:18.405Z,11.00
2022-07-29T01:16:02.763Z,10.00
2022-07-29T01:18:43.642Z,10.00
2022-07-29T01:21:39.491Z,8.67
2022-07-29T01:25:01.592Z,11.00
2022-07-29T01:28:06.686Z,11.00
2022-07-29T01:30:40.826Z,10.33
2022-07-29T01:33:36.949Z,9.00
2022-07-29T01:36:18.715Z,11.00
2022-07-29T01:39:07.900Z,9.67
2022-07-29T01:41:44.672Z,11.00
2022-07-29T01:44:28.065Z,10.00
2022-07-29T01:47:07.271Z,12.00
2022-07-29T01:49:44.483Z,9.00
2022-07-29T01:52:43.460Z,11.67
2022-07-29T01:55:17.741Z,11.67
2022-07-29T01:57:50.844Z,9.33
2022-07-29T02:00:19.401Z,11.00
2022-07-29T02:02:50.542Z,10.33
2022-07-29T02:05:23.407Z,9.67
2022-07-29T02:07:54.757Z,11.00
2022-07-29T02:10:29.816Z,9.33
2022-07-29T02:13:00.028Z,11.50
2022-07-29T02:15:33.941Z,10.67
2022-07-29T02:18:19.231Z,9.33
2022-07-29T02:20:54.762Z,10.00
2022-07-29T02:23:25.566Z,10.00
2022-07-29T02:25:58.473Z,11.50
2022-07-29T02:28:32.779Z,12.00
2022-07-29T02:31:04.810Z,12.00
2022-07-29T02:33:34.066Z,11.00
2022-07-29T02:36:04.151Z,10.00
2022-07-29T02:38:52.155Z,12.00
2022-07-29T02:41:37.408Z,11.00
2022-07-29T02:44:17.786Z,10.67
2022-07-29T02:47:07.044Z,10.00
2022-07-29T02:50:06.267Z,11.33
2022-07-29T02:53:01.235Z,9.33
2022-07-29T02:55:56.870Z,10.00
2022-07-29T02:58:46.537Z,12.00
2022-07-29T03:01:22.951Z,12.00
2022-07-29T03:03:55.847Z,12.00
2022-07-29T03:06:38.005Z,10.67
2022-07-29T03:09:13.386Z,10.00
2022-07-29T03:11:49.783Z,11.00
2022-07-29T03:14:21.567Z,11.00
2022-07-29T03:16:52.339Z,12.00
2022-07-29T03:19:21.745Z,11.00
2022-07-29T03:21:50.030Z,11.00
2022-07-29T03:24:36.462Z,13.00
2022-07-29T03:27:06.577Z,10.67
2022-07-29T03:29:35.920Z,12.00
2022-07-29T03:32:08.310Z,5.00
2022-07-29T03:34:39.261Z,14.00
2022-07-29T03:37:08.167Z,11.00
2022-07-29T03:39:42.990Z,11.00
2022-07-29T03:42:16.584Z,9.00
2022-07-29T03:44:49.713Z,13.00
2022-07-29T03:47:43.580Z,13.00
2022-07-29T03:50:17.805Z,14.00
2022-07-29T03:52:48.571Z,16.00
2022-07-29T03:55:18.175Z,13.00
2022-07-29T03:57:48.563Z,12.00
2022-07-29T04:00:17.811Z,13.67
2022-07-29T04:02:49.813Z,13.00
2022-07-29T04:05:20.331Z,13.00
2022-07-29T04:07:49.989Z,11.00
2022-07-29T04:10:30.176Z,11.00
2022-07-29T04:13:01.714Z,22.00
2022-07-29T04:15:31.175Z,28.00
2022-07-29T04:18:01.011Z,30.00
2022-07-29T04:20:30.656Z,27.00
2022-07-29T04:23:00.094Z,23.00
2022-07-29T04:25:29.670Z,0.00
2022-07-29T04:28:01.297Z,18.67
2022-07-29T04:30:32.182Z,21.67
2022-07-29T04:33:03.329Z,20.00
2022-07-29T04:35:45.694Z,15.00
2022-07-29T04:38:19.300Z,13.33
2022-07-29T04:40:50.565Z,15.25
2022-07-29T04:43:22.560Z,13.00
2022-07-29T04:45:52.161Z,16.00
2022-07-29T04:48:25.305Z,12.00
2022-07-29T04:50:58.160Z,13.00
2022-07-29T04:53:27.411Z,11.33
2022-07-29T04:55:56.266Z,12.50
2022-07-29T04:58:24.756Z,14.00
2022-07-29T05:00:53.405Z,15.33
2022-07-29T05:03:22.050Z,17.00
2022-07-29T05:05:51.532Z,18.25
2022-07-29T05:08:20.213Z,16.00
2022-07-29T05:10:49.086Z,16.00
2022-07-29T05:13:17.646Z,16.00
2022-07-29T05:15:46.393Z,15.00
2022-07-29T05:18:15.271Z,13.00
2022-07-29T05:20:44.052Z,14.00
2022-07-29T05:23:13.949Z,12.50
2022-07-29T05:25:44.283Z,12.00
2022-07-29T05:28:13.497Z,12.33
2022-07-29T05:30:42.300Z,14.00
2022-07-29T05:33:35.199Z,13.00
2022-07-29T05:36:01.137Z,12.50
2022-07-29T05:38:30.642Z,13.33
2022-07-29T05:41:00.784Z,13.00
2022-07-29T05:43:30.684Z,14.00
2022-07-29T05:45:59.638Z,14.00
2022-07-29T05:48:28.717Z,13.50
2022-07-29T05:50:57.346Z,13.00
2022-07-29T05:53:25.887Z,12.33
2022-07-29T05:55:54.552Z,13.00
2022-07-29T05:58:23.175Z,13.67
2022-07-29T06:00:52.006Z,13.50
2022-07-29T06:03:20.436Z,11.00
2022-07-29T06:05:49.075Z,14.00
2022-07-29T06:08:18.328Z,11.00
2022-07-29T06:10:47.173Z,15.00
2022-07-29T06:13:17.126Z,15.00
2022-07-29T06:15:45.819Z,15.00
2022-07-29T06:18:15.056Z,15.00
2022-07-29T06:20:44.275Z,15.00
2022-07-29T06:23:12.704Z,14.00
2022-07-29T06:25:42.466Z,14.67
2022-07-29T06:28:12.156Z,15.00
2022-07-29T06:30:41.789Z,13.00
2022-07-29T06:33:10.385Z,13.33
2022-07-29T06:35:41.812Z,13.67
2022-07-29T06:38:31.491Z,14.67
2022-07-29T06:41:01.567Z,16.00
2022-07-29T06:43:50.135Z,16.00
2022-07-29T06:46:22.620Z,14.67
2022-07-29T06:48:53.347Z,14.00
2022-07-29T06:51:24.053Z,14.00
2022-07-29T06:54:00.072Z,15.67
2022-07-29T06:56:38.496Z,15.33
2022-07-29T06:59:10.719Z,13.67
2022-07-29T07:01:43.339Z,16.00
2022-07-29T07:04:14.775Z,15.33
2022-07-29T07:06:43.744Z,14.00
2022-07-29T07:09:12.404Z,14.33
2022-07-29T07:11:41.095Z,14.00
2022-07-29T07:14:09.645Z,15.00
2022-07-29T07:16:38.317Z,10.00
2022-07-29T07:19:06.916Z,14.00
2022-07-29T07:21:36.120Z,14.33
2022-07-29T07:24:05.512Z,15.00
2022-07-29T07:26:34.061Z,16.00
2022-07-29T07:29:02.669Z,15.00
2022-07-29T07:31:31.410Z,13.00
2022-07-29T07:34:00.204Z,11.67
2022-07-29T07:36:28.738Z,11.67
2022-07-29T07:38:57.286Z,13.00
2022-07-29T07:41:25.917Z,12.67
2022-07-29T07:44:00.868Z,14.00
2022-07-29T07:46:29.548Z,14.00
2022-07-29T07:48:58.216Z,13.00
2022-07-29T07:51:26.754Z,14.00
2022-07-29T07:53:55.324Z,11.00
2022-07-29T07:56:26.307Z,12.00
2022-07-29T07:58:55.153Z,14.00
2022-07-29T08:01:24.234Z,13.00
2022-07-29T08:03:52.718Z,10.00
2022-07-29T08:06:21.251Z,11.00
2022-07-29T08:08:49.778Z,13.33
2022-07-29T08:11:18.458Z,11.00
2022-07-29T08:13:48.569Z,12.00
2022-07-29T08:16:17.176Z,11.33
2022-07-29T08:18:47.280Z,12.00
2022-07-29T08:21:17.634Z,12.00
2022-07-29T08:23:57.597Z,12.00
2022-07-29T08:26:28.438Z,14.00
2022-07-29T08:28:57.774Z,12.67
2022-07-29T08:31:27.282Z,12.00
2022-07-29T08:33:57.408Z,13.00
2022-07-29T08:36:28.063Z,12.50
2022-07-29T08:38:56.684Z,11.67
2022-07-29T08:41:25.686Z,13.00
2022-07-29T08:43:54.990Z,12.50
2022-07-29T08:46:24.717Z,12.33
2022-07-29T08:48:54.441Z,11.33
2022-07-29T08:51:23.726Z,13.50
2022-07-29T08:53:52.617Z,11.33
2022-07-29T08:56:22.323Z,12.00
2022-07-29T08:58:52.715Z,14.00
2022-07-29T09:01:35.563Z,11.67
2022-07-29T09:04:11.672Z,13.00
2022-07-29T09:06:47.814Z,13.67
2022-07-29T09:09:17.251Z,10.33
2022-07-29T09:11:46.008Z,11.67
2022-07-29T09:14:16.340Z,14.00
2022-07-29T09:16:57.386Z,13.00
2022-07-29T09:19:38.314Z,12.00
2022-07-29T09:22:13.831Z,10.33
2022-07-29T09:24:47.925Z,10.00
2022-07-29T09:27:26.949Z,10.00
2022-07-29T09:30:14.547Z,9.00
2022-07-29T09:33:04.529Z,7.33
2022-07-29T09:35:33.085Z,11.00
2022-07-29T09:38:15.258Z,10.33
2022-07-29T09:41:05.473Z,10.00
2022-07-29T09:43:35.837Z,10.00
2022-07-29T09:46:15.146Z,9.33
2022-07-29T09:48:43.691Z,9.00
2022-07-29T09:51:26.994Z,11.00
2022-07-29T09:53:58.537Z,8.33
2022-07-29T09:56:43.781Z,8.00
2022-07-29T09:59:13.229Z,9.33
2022-07-29T10:01:42.063Z,9.00
2022-07-29T10:04:11.066Z,9.33
2022-07-29T10:07:05.036Z,10.00
2022-07-29T10:09:35.268Z,8.33
2022-07-29T10:12:16.842Z,7.33
2022-07-29T10:14:45.370Z,8.67
2022-07-29T10:17:19.997Z,7.14
2022-07-29T10:19:50.155Z,8.33
2022-07-29T10:22:36.860Z,6.00
2022-07-29T10:25:08.556Z,3.00
2022-07-29T10:27:38.595Z,8.00
2022-07-29T10:30:09.121Z,6.00
2022-07-29T10:33:15.358Z,7.33
2022-07-29T10:36:37.130Z,9.00
2022-07-29T10:39:44.548Z,7.00
2022-07-29T10:42:34.476Z,7.00
2022-07-29T10:45:05.925Z,10.00
2022-07-29T10:47:35.402Z,5.00
2022-07-29T10:50:11.677Z,9.00
2022-07-29T10:53:00.033Z,9.00
2022-07-29T10:55:45.672Z,7.33
2022-07-29T10:58:19.973Z,7.33
2022-07-29T11:00:56.381Z,8.00
2022-07-29T11:03:59.000Z,8.00
2022-07-29T11:07:05.592Z,8.00
2022-07-29T11:09:37.636Z,8.33
2022-07-29T11:12:40.750Z,9.00
2022-07-29T11:15:21.905Z,8.00
2022-07-29T11:17:59.552Z,7.67
2022-07-29T11:20:49.862Z,8.00
2022-07-29T11:23:36.856Z,8.00
2022-07-29T11:26:26.174Z,7.67
2022-07-29T11:29:23.302Z,10.00
2022-07-29T11:31:57.145Z,8.00
2022-07-29T11:34:31.492Z,6.00
2022-07-29T11:37:10.297Z,9.00
2022-07-29T11:39:55.840Z,7.67
2022-07-29T11:42:32.332Z,8.00
2022-07-29T11:45:43.394Z,9.00
2022-07-29T11:48:31.259Z,7.00
2022-07-29T11:50:59.561Z,7.67
2022-07-29T11:53:29.125Z,10.40
2022-07-29T11:56:03.484Z,9.33
2022-07-29T11:58:32.873Z,9.00
2022-07-29T12:01:04.097Z,7.33
2022-07-29T12:03:36.825Z,8.00
2022-07-29T12:06:18.003Z,7.00
2022-07-29T12:08:47.360Z,6.33
2022-07-29T12:11:23.425Z,8.00
2022-07-29T12:13:53.822Z,8.00
2022-07-29T12:16:25.653Z,7.00
2022-07-29T12:19:05.548Z,6.00
2022-07-29T12:21:56.549Z,9.00
2022-07-29T12:24:27.411Z,6.20
2022-07-29T12:27:02.476Z,8.33
2022-07-29T12:29:34.746Z,7.00
2022-07-29T12:32:14.690Z,8.00
2022-07-29T12:34:48.226Z,7.33
2022-07-29T12:37:17.338Z,8.33
2022-07-29T12:39:46.484Z,9.00
2022-07-29T12:42:19.179Z,9.00
2022-07-29T12:44:52.420Z,7.67
2022-07-29T12:47:21.841Z,8.33
2022-07-29T12:49:52.309Z,8.00
2022-07-29T12:52:33.945Z,8.00
2022-07-29T12:55:04.418Z,6.67
2022-07-29T12:57:37.671Z,8.00
2022-07-29T13:00:14.236Z,8.33
2022-07-29T13:02:44.888Z,6.00
2022-07-29T13:05:13.926Z,7.00
2022-07-29T13:07:55.852Z,7.33
2022-07-29T13:10:26.235Z,7.33
2022-07-29T13:13:11.398Z,5.33
2022-07-29T13:16:08.733Z,8.00
2022-07-29T13:18:37.748Z,9.00
2022-07-29T13:21:18.872Z,8.67
2022-07-29T13:23:47.492Z,6.00
2022-07-29T13:26:20.183Z,8.00
2022-07-29T13:28:48.559Z,4.00
2022-07-29T13:31:16.983Z,8.00
2022-07-29T13:33:45.364Z,5.33
2022-07-29T13:36:13.797Z,8.00
2022-07-29T13:38:42.247Z,6.67
2022-07-29T13:41:12.003Z,8.00
2022-07-29T13:43:40.643Z,8.00
2022-07-29T13:46:09.460Z,7.00
2022-07-29T13:48:38.034Z,8.00
2022-07-29T13:51:06.439Z,7.00
2022-07-29T13:53:34.865Z,7.00
2022-07-29T13:56:03.696Z,8.00
2022-07-29T13:58:32.365Z,7.00
2022-07-29T14:01:01.787Z,7.67
2022-07-29T14:03:30.404Z,7.00
2022-07-29T14:06:01.373Z,8.00
2022-07-29T14:08:29.949Z,7.00
2022-07-29T14:10:58.425Z,7.00
2022-07-29T14:13:26.923Z,8.33
2022-07-29T14:15:55.479Z,9.00
2022-07-29T14:18:23.959Z,5.00
2022-07-29T14:20:52.500Z,7.33
2022-07-29T14:23:21.030Z,5.00
2022-07-29T14:25:49.635Z,8.67
2022-07-29T14:28:18.268Z,7.33
2022-07-29T14:30:46.767Z,8.00
2022-07-29T14:33:16.016Z,7.00
2022-07-29T14:35:46.507Z,8.00
2022-07-29T14:38:15.039Z,7.00
2022-07-29T14:40:43.430Z,7.50
2022-07-29T14:43:11.929Z,8.33
2022-07-29T14:45:41.398Z,7.00
2022-07-29T14:48:11.070Z,6.33
2022-07-29T14:50:39.907Z,7.00
2022-07-29T14:53:08.440Z,6.67
2022-07-29T14:55:37.095Z,8.00
2022-07-29T14:58:10.929Z,8.33
2022-07-29T15:00:40.814Z,8.33
2022-07-29T15:03:12.200Z,9.00
2022-07-29T15:05:40.628Z,9.50
2022-07-29T15:08:09.337Z,8.00
2022-07-29T15:10:37.857Z,10.00
2022-07-29T15:13:06.445Z,7.33
2022-07-29T15:15:35.077Z,8.67
2022-07-29T15:18:04.001Z,8.33
2022-07-29T15:20:32.729Z,7.00
2022-07-29T15:23:03.669Z,8.33
2022-07-29T15:25:34.083Z,9.33
2022-07-29T15:28:04.070Z,8.00
2022-07-29T15:30:34.459Z,9.33
2022-07-29T15:33:04.725Z,8.33
2022-07-29T15:35:33.672Z,9.33
2022-07-29T15:38:09.557Z,7.33
2022-07-29T15:40:44.711Z,7.67
2022-07-29T15:43:13.427Z,11.00
2022-07-29T15:46:06.807Z,10.00
2022-07-29T15:48:40.243Z,9.00
2022-07-29T15:51:08.907Z,8.00
2022-07-29T15:53:37.464Z,7.50
2022-07-29T15:56:06.232Z,9.33
2022-07-29T15:58:34.655Z,9.67
2022-07-29T16:01:03.177Z,9.67
2022-07-29T16:03:31.746Z,8.00
2022-07-29T16:06:00.349Z,10.00
2022-07-29T16:08:28.868Z,9.00
2022-07-29T16:10:57.460Z,10.00
2022-07-29T16:13:25.874Z,9.33
2022-07-29T16:16:02.036Z,8.00
2022-07-29T16:18:31.635Z,8.33
2022-07-29T16:21:00.209Z,9.67
2022-07-29T16:23:28.706Z,9.00
2022-07-29T16:26:00.133Z,8.00
2022-07-29T16:28:31.004Z,10.00
2022-07-29T16:30:59.878Z,9.67
2022-07-29T16:33:28.791Z,9.33
2022-07-29T16:36:18.847Z,9.50
2022-07-29T16:38:48.142Z,9.00
2022-07-29T16:41:16.732Z,5.00
2022-07-29T16:43:45.323Z,9.00
2022-07-29T16:46:18.835Z,10.00
2022-07-29T16:48:48.862Z,10.00
2022-07-29T16:51:17.399Z,10.00
2022-07-29T16:53:45.970Z,10.00
2022-07-29T16:56:18.743Z,11.00
2022-07-29T16:58:47.396Z,9.33
2022-07-29T17:01:17.301Z,12.00
2022-07-29T17:04:04.078Z,10.33
2022-07-29T17:06:38.203Z,9.00
2022-07-29T17:09:09.893Z,10.00
2022-07-29T17:11:52.882Z,10.00
2022-07-29T17:14:29.460Z,10.33
2022-07-29T17:17:01.988Z,10.67
2022-07-29T17:19:35.590Z,9.00
2022-07-29T17:22:15.496Z,10.33
2022-07-29T17:24:45.496Z,10.00
2022-07-29T17:27:14.893Z,10.00
2022-07-29T17:29:43.762Z,11.50
2022-07-29T17:32:12.620Z,9.67
2022-07-29T17:34:43.156Z,10.67
2022-07-29T17:37:13.042Z,9.00
2022-07-29T17:39:43.242Z,10.50
2022-07-29T17:42:14.708Z,10.00
2022-07-29T17:44:43.423Z,10.00
2022-07-29T17:47:15.934Z,11.50
2022-07-29T17:49:47.407Z,12.00
2022-07-29T17:52:18.493Z,12.00
2022-07-29T17:54:49.309Z,14.00
2022-07-29T17:57:17.899Z,11.50
2022-07-29T17:59:46.515Z,11.50
2022-07-29T18:02:15.108Z,12.00
2022-07-29T18:04:44.546Z,13.67
2022-07-29T18:07:14.137Z,15.00
2022-07-29T18:09:42.843Z,15.00
2022-07-29T18:12:11.669Z,15.00
2022-07-29T18:14:40.237Z,13.00
2022-07-29T18:17:08.870Z,13.00
2022-07-29T18:19:37.541Z,12.67
2022-07-29T18:22:07.550Z,11.00
2022-07-29T18:24:36.229Z,12.50
2022-07-29T18:27:08.243Z,13.00
2022-07-29T18:29:37.027Z,11.50
2022-07-29T18:32:06.518Z,12.67
2022-07-29T18:34:35.228Z,13.00
2022-07-29T18:37:03.796Z,13.33
2022-07-29T18:39:32.255Z,10.50
2022-07-29T18:42:00.825Z,12.33
2022-07-29T18:44:29.419Z,13.00
2022-07-29T18:46:58.429Z,12.00
2022-07-29T18:49:27.843Z,11.67
2022-07-29T18:51:57.263Z,13.00
2022-07-29T18:54:25.838Z,13.33
2022-07-29T18:56:54.409Z,12.67
2022-07-29T18:59:23.259Z,10.67
2022-07-29T19:01:52.176Z,12.33
2022-07-29T19:04:20.956Z,14.00
2022-07-29T19:06:49.815Z,13.00
2022-07-29T19:09:19.258Z,14.00
2022-07-29T19:11:48.985Z,12.33
2022-07-29T19:14:19.565Z,13.00
2022-07-29T19:16:50.980Z,12.00
2022-07-29T19:19:19.933Z,13.00
2022-07-29T19:21:49.339Z,11.33
2022-07-29T19:24:17.768Z,12.00
2022-07-29T19:26:49.313Z,11.50
2022-07-29T19:29:18.194Z,10.50
2022-07-29T19:31:47.183Z,12.00
2022-07-29T19:34:15.723Z,11.33
2022-07-29T19:36:45.148Z,13.33
2022-07-29T19:39:13.721Z,13.33
2022-07-29T19:41:42.435Z,13.33
2022-07-29T19:44:11.692Z,13.67
2022-07-29T19:46:40.579Z,13.33
2022-07-29T19:49:10.285Z,12.00
2022-07-29T19:51:38.891Z,14.67
2022-07-29T19:54:08.605Z,11.33
2022-07-29T19:56:42.254Z,13.00
2022-07-29T19:59:11.024Z,14.00
2022-07-29T20:01:41.005Z,14.33
2022-07-29T20:04:09.678Z,15.00
2022-07-29T20:06:38.261Z,13.67
2022-07-29T20:09:06.887Z,13.00
2022-07-29T20:11:37.192Z,13.00
2022-07-29T20:14:06.690Z,14.00
2022-07-29T20:16:36.084Z,14.00
2022-07-29T20:19:05.507Z,15.00
2022-07-29T20:21:34.127Z,15.33
2022-07-29T20:24:07.664Z,13.00
2022-07-29T20:26:39.161Z,15.71
2022-07-29T20:29:07.944Z,15.33
2022-07-29T20:31:37.041Z,15.33
2022-07-29T20:34:05.905Z,16.00
2022-07-29T20:36:34.545Z,16.33
2022-07-29T20:39:03.534Z,16.00
2022-07-29T20:41:34.022Z,15.67
2022-07-29T20:44:03.915Z,16.67
2022-07-29T20:46:32.955Z,17.33
2022-07-29T20:49:01.723Z,17.00
2022-07-29T20:51:31.076Z,16.67
2022-07-29T20:54:04.829Z,68.86
2022-07-29T20:56:33.530Z,22.00
2022-07-29T20:59:03.290Z,17.67
2022-07-29T21:01:32.012Z,18.00
2022-07-29T21:04:03.210Z,17.00
2022-07-29T21:06:32.831Z,18.75
2022-07-29T21:09:01.604Z,18.00
2022-07-29T21:11:43.777Z,16.00
2022-07-29T21:14:37.304Z,14.33
2022-07-29T21:17:07.538Z,16.00
2022-07-29T21:19:36.223Z,17.67
2022-07-29T21:22:05.023Z,16.00
2022-07-29T21:24:33.748Z,16.00
2022-07-29T21:27:21.985Z,16.67
2022-07-29T21:29:50.700Z,17.00
2022-07-29T21:32:27.332Z,18.00
2022-07-29T21:34:59.277Z,17.00
2022-07-29T21:37:28.248Z,16.00
2022-07-29T21:39:57.266Z,15.00
2022-07-29T21:42:25.978Z,16.00
2022-07-29T21:44:55.079Z,14.00
2022-07-29T21:47:23.700Z,12.00
2022-07-29T21:49:53.087Z,12.00
2022-07-29T21:52:21.664Z,10.00
2022-07-29T21:54:50.485Z,12.00
2022-07-29T21:57:19.063Z,11.67
2022-07-29T21:59:47.649Z,12.50
2022-07-29T22:02:16.256Z,12.50
2022-07-29T22:04:44.825Z,13.00
2022-07-29T22:07:13.375Z,9.50
2022-07-29T22:09:42.008Z,13.00
2022-07-29T22:12:10.804Z,13.00
2022-07-29T22:14:39.413Z,13.00
2022-07-29T22:17:09.218Z,11.67
2022-07-29T22:19:37.830Z,9.00
2022-07-29T22:22:06.356Z,11.50
2022-07-29T22:24:34.887Z,9.67
2022-07-29T22:27:04.022Z,12.50
2022-07-29T22:29:32.647Z,12.00
2022-07-29T22:32:01.348Z,14.00
2022-07-29T22:34:37.125Z,12.33
2022-07-29T22:37:06.851Z,11.67
2022-07-29T22:39:35.560Z,13.33
2022-07-29T22:42:04.587Z,12.00
2022-07-29T22:44:33.288Z,15.00
2022-07-29T22:47:02.297Z,12.67
2022-07-29T22:49:31.332Z,12.00
2022-07-29T22:52:00.513Z,13.00
2022-07-29T22:54:29.191Z,11.50
2022-07-29T22:56:57.923Z,11.33
2022-07-29T22:59:26.826Z,14.00
2022-07-29T23:01:55.465Z,12.00
2022-07-29T23:04:24.061Z,12.00
2022-07-29T23:06:52.705Z,11.67
2022-07-29T23:09:21.302Z,11.33
2022-07-29T23:11:49.890Z,12.00
2022-07-29T23:14:18.484Z,11.00
2022-07-29T23:16:47.026Z,10.00
2022-07-29T23:19:15.649Z,12.00
2022-07-29T23:21:44.261Z,12.00
2022-07-29T23:24:12.884Z,14.00
2022-07-29T23:26:41.531Z,14.00
2022-07-29T23:29:10.506Z,13.67
2022-07-29T23:31:39.455Z,13.00
2022-07-29T23:34:11.244Z,12.00
2022-07-29T23:36:39.830Z,13.33
2022-07-29T23:39:13.445Z,12.00
2022-07-29T23:41:42.786Z,12.00
2022-07-29T23:44:11.279Z,11.33
2022-07-29T23:46:39.898Z,11.00
2022-07-29T23:49:08.619Z,12.00
2022-07-29T23:51:37.123Z,10.33
2022-07-29T23:54:05.696Z,11.33
2022-07-29T23:56:34.215Z,12.00
2022-07-29T23:59:05.679Z,12.67
